createdAt,value
2019-05-28T00:01:53.236Z,20.84
2019-05-28T00:04:43.484Z,20.94
2019-05-28T00:07:33.862Z,21.00
2019-05-28T00:10:24.167Z,21.05
2019-05-28T00:13:14.639Z,21.03
2019-05-28T00:16:09.763Z,21.05
2019-05-28T00:18:57.912Z,21.05
2019-05-28T00:21:48.269Z,21.12
2019-05-28T00:24:38.576Z,21.13
2019-05-28T00:27:28.915Z,21.02
2019-05-28T00:30:21.047Z,21.02
2019-05-28T00:33:11.810Z,21.09
2019-05-28T00:36:02.176Z,21.17
2019-05-28T00:38:52.540Z,21.14
2019-05-28T00:41:42.891Z,21.27
2019-05-28T00:44:33.180Z,21.23
2019-05-28T00:47:23.527Z,21.34
2019-05-28T00:50:13.740Z,21.41
2019-05-28T00:53:04.082Z,21.31
2019-05-28T00:55:54.359Z,21.18
2019-05-28T00:58:44.660Z,21.12
2019-05-28T01:01:35.092Z,21.16
2019-05-28T01:04:25.662Z,21.19
2019-05-28T01:07:16.113Z,21.25
2019-05-28T01:10:07.098Z,21.29
2019-05-28T01:12:58.336Z,21.32
2019-05-28T01:15:48.711Z,21.47
2019-05-28T01:18:39.062Z,21.42
2019-05-28T01:21:29.359Z,21.21
2019-05-28T01:24:19.421Z,20.99
2019-05-28T01:27:09.498Z,20.92
2019-05-28T01:29:59.789Z,20.90
2019-05-28T01:32:51.375Z,21.03
2019-05-28T01:35:41.848Z,21.02
2019-05-28T01:38:32.119Z,20.92
2019-05-28T01:41:22.489Z,20.82
2019-05-28T01:44:12.752Z,20.79
2019-05-28T01:47:02.976Z,20.75
2019-05-28T01:49:53.291Z,20.77
2019-05-28T01:52:43.569Z,20.82
2019-05-28T01:55:33.675Z,20.90
2019-05-28T01:58:24.087Z,20.94
2019-05-28T02:01:14.213Z,20.95
2019-05-28T02:04:04.372Z,20.95
2019-05-28T02:06:54.590Z,20.99
2019-05-28T02:09:44.624Z,21.05
2019-05-28T02:12:34.802Z,21.26
2019-05-28T02:15:25.279Z,21.37
2019-05-28T02:18:15.608Z,21.33
2019-05-28T02:21:05.770Z,21.39
2019-05-28T02:23:55.764Z,21.34
2019-05-28T02:26:46.112Z,21.37
2019-05-28T02:29:36.498Z,21.31
2019-05-28T02:32:26.631Z,21.20
2019-05-28T02:35:16.989Z,21.17
2019-05-28T02:38:07.163Z,21.25
2019-05-28T02:40:57.459Z,21.09
2019-05-28T02:43:47.706Z,21.01
2019-05-28T02:46:37.987Z,21.01
2019-05-28T02:49:28.188Z,21.05
2019-05-28T02:52:18.552Z,21.09
2019-05-28T02:55:09.139Z,21.10
2019-05-28T02:57:59.255Z,21.02
2019-05-28T03:00:50.028Z,20.97
2019-05-28T03:03:40.687Z,20.90
2019-05-28T03:06:30.926Z,20.84
2019-05-28T03:09:20.965Z,20.79
2019-05-28T03:12:11.263Z,20.89
2019-05-28T03:15:01.320Z,20.76
2019-05-28T03:17:52.607Z,20.87
2019-05-28T03:20:42.630Z,20.75
2019-05-28T03:23:33.079Z,20.73
2019-05-28T03:26:23.850Z,20.68
2019-05-28T03:29:14.371Z,20.67
2019-05-28T03:32:08.779Z,20.64
2019-05-28T03:34:56.767Z,20.64
2019-05-28T03:37:46.989Z,20.65
2019-05-28T03:40:44.175Z,20.60
2019-05-28T03:43:34.462Z,20.55
2019-05-28T03:46:24.606Z,20.69
2019-05-28T03:49:14.738Z,20.80
2019-05-28T03:52:04.838Z,20.87
2019-05-28T03:54:55.129Z,20.88
2019-05-28T03:57:45.046Z,20.96
2019-05-28T04:00:35.324Z,21.11
2019-05-28T04:03:25.543Z,21.31
2019-05-28T04:06:15.816Z,21.26
2019-05-28T04:09:08.801Z,21.35
2019-05-28T04:12:03.141Z,21.62
2019-05-28T04:14:54.589Z,21.59
2019-05-28T04:17:44.931Z,21.85
2019-05-28T04:20:35.135Z,22.04
2019-05-28T04:23:25.196Z,22.25
2019-05-28T04:26:15.539Z,22.50
2019-05-28T04:29:06.400Z,22.72
2019-05-28T04:31:56.803Z,23.08
2019-05-28T04:34:47.361Z,23.43
2019-05-28T04:37:38.123Z,23.70
2019-05-28T04:40:28.959Z,23.98
2019-05-28T04:43:19.764Z,24.09
2019-05-28T04:46:10.409Z,24.39
2019-05-28T04:49:01.182Z,24.81
2019-05-28T04:51:52.016Z,25.23
2019-05-28T04:54:42.847Z,25.72
2019-05-28T04:57:33.792Z,26.13
2019-05-28T05:00:24.587Z,26.76
2019-05-28T05:03:15.633Z,26.89
2019-05-28T05:06:06.634Z,27.17
2019-05-28T05:08:57.675Z,27.53
2019-05-28T05:11:48.681Z,27.86
2019-05-28T05:14:39.479Z,28.21
2019-05-28T05:17:30.261Z,28.78
2019-05-28T05:20:21.066Z,29.18
2019-05-28T05:23:11.593Z,29.58
2019-05-28T05:26:02.940Z,30.22
2019-05-28T05:28:53.562Z,30.56
2019-05-28T05:31:44.182Z,30.71
2019-05-28T05:34:34.768Z,30.93
2019-05-28T05:37:25.493Z,30.91
2019-05-28T05:40:16.911Z,31.32
2019-05-28T05:43:07.533Z,31.10
2019-05-28T05:45:58.286Z,31.52
2019-05-28T05:48:49.312Z,31.52
2019-05-28T05:51:40.329Z,31.61
2019-05-28T05:54:31.438Z,31.77
2019-05-28T05:57:22.495Z,31.58
2019-05-28T06:00:13.528Z,31.99
2019-05-28T06:03:04.326Z,32.32
2019-05-28T06:05:55.111Z,32.69
2019-05-28T06:08:45.930Z,33.27
2019-05-28T06:11:36.532Z,33.68
2019-05-28T06:14:27.006Z,33.59
2019-05-28T06:17:17.395Z,33.94
2019-05-28T06:20:08.404Z,33.87
2019-05-28T06:22:59.047Z,34.18
2019-05-28T06:25:49.260Z,34.49
2019-05-28T06:28:39.840Z,34.53
2019-05-28T06:31:30.492Z,34.73
2019-05-28T06:34:21.281Z,35.08
2019-05-28T06:37:11.579Z,35.14
2019-05-28T06:40:01.800Z,35.32
2019-05-28T06:42:52.310Z,35.89
2019-05-28T06:45:42.679Z,35.72
2019-05-28T06:48:33.240Z,36.10
2019-05-28T06:51:23.819Z,35.75
2019-05-28T06:54:14.179Z,36.02
2019-05-28T06:57:21.557Z,36.46
2019-05-28T06:59:56.696Z,36.30
2019-05-28T07:02:47.367Z,36.69
2019-05-28T07:05:38.084Z,36.63
2019-05-28T07:08:28.564Z,36.92
2019-05-28T07:11:20.034Z,36.95
2019-05-28T07:14:10.508Z,36.93
2019-05-28T07:17:01.488Z,37.11
2019-05-28T07:19:52.151Z,37.10
2019-05-28T07:22:42.554Z,37.03
2019-05-28T07:25:32.804Z,37.08
2019-05-28T07:28:23.335Z,37.14
2019-05-28T07:31:14.012Z,36.75
2019-05-28T07:34:04.576Z,37.08
2019-05-28T07:36:55.222Z,36.51
2019-05-28T07:39:45.747Z,36.93
2019-05-28T07:42:36.253Z,35.93
2019-05-28T07:45:26.727Z,35.20
2019-05-28T07:48:17.281Z,34.60
2019-05-28T07:51:07.738Z,35.03
2019-05-28T07:53:58.094Z,35.48
2019-05-28T07:56:48.640Z,35.00
2019-05-28T07:59:39.309Z,34.73
2019-05-28T08:02:30.115Z,33.10
2019-05-28T08:05:20.962Z,29.81
2019-05-28T08:08:11.729Z,29.81
2019-05-28T08:11:02.429Z,29.78
2019-05-28T08:13:53.366Z,29.18
2019-05-28T08:16:52.347Z,28.69
2019-05-28T08:19:37.364Z,28.16
2019-05-28T08:22:41.580Z,27.91
2019-05-28T08:25:41.471Z,27.71
2019-05-28T08:28:19.764Z,27.26
2019-05-28T08:31:15.425Z,27.06
2019-05-28T08:33:57.462Z,27.07
2019-05-28T08:37:04.324Z,27.16
2019-05-28T08:39:40.885Z,27.43
2019-05-28T08:42:31.820Z,27.36
2019-05-28T08:45:22.834Z,27.11
2019-05-28T08:48:13.984Z,27.24
2019-05-28T08:51:04.730Z,27.29
2019-05-28T08:53:55.777Z,26.97
2019-05-28T08:56:46.547Z,27.20
2019-05-28T08:59:37.102Z,27.18
2019-05-28T09:02:28.930Z,27.04
2019-05-28T09:05:26.467Z,27.69
2019-05-28T09:08:12.048Z,28.32
2019-05-28T09:11:02.860Z,28.46
2019-05-28T09:13:54.010Z,28.66
2019-05-28T09:16:44.797Z,29.17
2019-05-28T09:19:35.417Z,29.39
2019-05-28T09:22:26.638Z,29.53
2019-05-28T09:25:17.765Z,28.84
2019-05-28T09:28:08.600Z,27.99
2019-05-28T09:30:59.258Z,27.94
2019-05-28T09:33:50.096Z,27.80
2019-05-28T09:36:41.014Z,28.01
2019-05-28T09:39:31.945Z,27.77
2019-05-28T09:42:23.216Z,27.75
2019-05-28T09:45:22.362Z,27.26
2019-05-28T09:48:06.971Z,27.27
2019-05-28T09:50:57.698Z,27.23
2019-05-28T09:53:48.590Z,27.21
2019-05-28T09:56:39.307Z,27.14
2019-05-28T09:59:41.021Z,27.10
2019-05-28T10:02:22.890Z,27.05
2019-05-28T10:05:13.745Z,27.20
2019-05-28T10:08:04.552Z,27.18
2019-05-28T10:10:55.167Z,27.24
2019-05-28T10:13:46.667Z,27.07
2019-05-28T10:16:37.601Z,27.28
2019-05-28T10:19:28.426Z,27.45
2019-05-28T10:22:19.354Z,27.34
2019-05-28T10:25:09.966Z,27.16
2019-05-28T10:28:01.921Z,27.13
2019-05-28T10:30:52.753Z,27.23
2019-05-28T10:33:43.810Z,27.34
2019-05-28T10:36:37.191Z,27.51
2019-05-28T10:39:27.160Z,27.66
2019-05-28T10:42:18.077Z,27.70
2019-05-28T10:45:09.532Z,27.66
2019-05-28T10:48:01.336Z,27.81
2019-05-28T10:50:52.425Z,27.75
2019-05-28T10:53:43.336Z,27.92
2019-05-28T10:56:34.025Z,27.99
2019-05-28T10:59:24.792Z,27.99
2019-05-28T11:02:15.535Z,28.06
2019-05-28T11:05:06.990Z,28.03
2019-05-28T11:07:57.850Z,27.86
2019-05-28T11:10:48.475Z,27.94
2019-05-28T11:13:52.481Z,27.96
2019-05-28T11:16:31.434Z,27.96
2019-05-28T11:19:22.464Z,27.97
2019-05-28T11:22:13.050Z,27.36
2019-05-28T11:25:03.974Z,27.40
2019-05-28T11:27:54.833Z,27.49
2019-05-28T11:30:45.567Z,27.43
2019-05-28T11:33:38.139Z,27.71
2019-05-28T11:36:28.740Z,27.66
2019-05-28T11:39:19.668Z,27.16
2019-05-28T11:42:10.596Z,27.38
2019-05-28T11:45:01.770Z,26.91
2019-05-28T11:47:52.851Z,26.94
2019-05-28T11:50:43.746Z,27.24
2019-05-28T11:53:36.751Z,27.05
2019-05-28T11:56:26.977Z,26.59
2019-05-28T11:59:17.672Z,26.27
2019-05-28T12:02:08.132Z,26.06
2019-05-28T12:04:59.066Z,26.05
2019-05-28T12:07:51.796Z,26.44
2019-05-28T12:10:42.644Z,26.53
2019-05-28T12:13:33.252Z,26.28
2019-05-28T12:16:24.185Z,26.68
2019-05-28T12:19:14.948Z,26.52
2019-05-28T12:22:06.151Z,26.94
2019-05-28T12:24:57.034Z,27.10
2019-05-28T12:27:48.145Z,27.00
2019-05-28T12:30:38.727Z,27.12
2019-05-28T12:33:29.648Z,27.24
2019-05-28T12:36:21.583Z,27.23
2019-05-28T12:39:12.568Z,27.35
2019-05-28T12:42:07.133Z,27.38
2019-05-28T12:45:08.812Z,27.28
2019-05-28T12:48:07.521Z,27.34
2019-05-28T12:50:41.388Z,27.43
2019-05-28T12:53:49.178Z,27.47
2019-05-28T12:56:24.811Z,27.52
2019-05-28T12:59:15.704Z,27.26
2019-05-28T13:02:06.717Z,27.32
2019-05-28T13:04:57.821Z,27.28
2019-05-28T13:08:06.266Z,27.32
2019-05-28T13:10:41.205Z,27.40
2019-05-28T13:13:32.303Z,27.31
2019-05-28T13:16:22.835Z,27.23
2019-05-28T13:19:13.849Z,27.21
2019-05-28T13:22:04.595Z,27.16
2019-05-28T13:24:55.330Z,27.12
2019-05-28T13:27:46.096Z,27.10
2019-05-28T13:30:37.090Z,26.93
2019-05-28T13:33:27.702Z,26.74
2019-05-28T13:36:18.525Z,26.89
2019-05-28T13:39:09.411Z,27.04
2019-05-28T13:42:00.297Z,27.01
2019-05-28T13:44:51.248Z,26.73
2019-05-28T13:47:41.867Z,26.64
2019-05-28T13:50:32.813Z,26.74
2019-05-28T13:53:23.554Z,26.80
2019-05-28T13:56:14.121Z,26.52
2019-05-28T13:59:04.785Z,26.58
2019-05-28T14:01:55.581Z,26.53
2019-05-28T14:04:46.486Z,26.54
2019-05-28T14:07:37.714Z,26.56
2019-05-28T14:10:28.577Z,26.59
2019-05-28T14:13:19.086Z,26.59
2019-05-28T14:16:09.934Z,26.57
2019-05-28T14:19:00.735Z,26.54
2019-05-28T14:21:51.622Z,26.61
2019-05-28T14:24:42.483Z,26.54
2019-05-28T14:27:33.574Z,26.48
2019-05-28T14:30:24.225Z,26.58
2019-05-28T14:33:15.341Z,26.01
2019-05-28T14:36:06.509Z,25.73
2019-05-28T14:39:03.181Z,25.71
2019-05-28T14:41:49.796Z,25.73
2019-05-28T14:44:43.234Z,25.53
2019-05-28T14:47:33.289Z,25.57
2019-05-28T14:50:24.300Z,25.63
2019-05-28T14:53:15.079Z,25.59
2019-05-28T14:56:05.924Z,25.55
2019-05-28T14:58:57.763Z,25.61
2019-05-28T15:01:48.622Z,25.70
2019-05-28T15:04:39.163Z,25.78
2019-05-28T15:07:29.973Z,25.90
2019-05-28T15:10:20.494Z,26.06
2019-05-28T15:13:11.093Z,26.13
2019-05-28T15:16:01.903Z,26.10
2019-05-28T15:18:52.572Z,26.16
2019-05-28T15:21:43.174Z,26.22
2019-05-28T15:24:34.133Z,26.27
2019-05-28T15:27:24.792Z,26.27
2019-05-28T15:30:18.340Z,26.23
2019-05-28T15:33:08.970Z,26.25
2019-05-28T15:35:59.961Z,26.12
2019-05-28T15:38:50.918Z,25.99
2019-05-28T15:41:44.376Z,26.07
2019-05-28T15:44:35.364Z,26.03
2019-05-28T15:47:26.316Z,26.00
2019-05-28T15:50:17.169Z,25.99
2019-05-28T15:53:07.872Z,25.96
2019-05-28T15:55:58.617Z,25.91
2019-05-28T15:58:49.289Z,25.85
2019-05-28T16:01:40.221Z,25.89
2019-05-28T16:04:31.093Z,25.91
2019-05-28T16:07:21.851Z,25.95
2019-05-28T16:10:12.728Z,26.01
2019-05-28T16:13:03.296Z,25.83
2019-05-28T16:15:54.215Z,25.65
2019-05-28T16:18:45.016Z,25.62
2019-05-28T16:21:35.748Z,25.50
2019-05-28T16:24:26.982Z,25.47
2019-05-28T16:27:17.768Z,25.30
2019-05-28T16:30:08.824Z,25.35
2019-05-28T16:33:00.355Z,25.41
2019-05-28T16:35:51.094Z,25.30
2019-05-28T16:38:41.933Z,25.25
2019-05-28T16:41:32.464Z,25.10
2019-05-28T16:44:23.058Z,24.97
2019-05-28T16:47:18.098Z,24.95
2019-05-28T16:50:06.352Z,24.93
2019-05-28T16:52:57.086Z,24.89
2019-05-28T16:55:47.949Z,24.85
2019-05-28T16:58:38.809Z,24.80
2019-05-28T17:01:29.184Z,24.71
2019-05-28T17:04:19.947Z,24.72
2019-05-28T17:07:10.686Z,24.69
2019-05-28T17:10:01.425Z,24.76
2019-05-28T17:12:51.395Z,24.75
2019-05-28T17:15:41.615Z,24.61
2019-05-28T17:18:32.162Z,24.55
2019-05-28T17:21:23.289Z,24.43
2019-05-28T17:24:14.704Z,24.36
2019-05-28T17:27:05.023Z,24.34
2019-05-28T17:30:15.460Z,24.19
2019-05-28T17:32:47.118Z,23.98
2019-05-28T17:35:37.577Z,23.88
2019-05-28T17:38:27.761Z,23.79
2019-05-28T17:41:19.976Z,23.61
2019-05-28T17:44:09.716Z,23.61
2019-05-28T17:47:00.099Z,23.53
2019-05-28T17:49:50.588Z,23.58
2019-05-28T17:52:40.685Z,23.57
2019-05-28T17:55:31.993Z,23.54
2019-05-28T17:58:22.269Z,23.49
2019-05-28T18:01:12.513Z,23.49
2019-05-28T18:04:02.761Z,23.57
2019-05-28T18:06:53.015Z,23.60
2019-05-28T18:09:43.332Z,23.52
2019-05-28T18:12:33.422Z,23.58
2019-05-28T18:15:23.567Z,23.58
2019-05-28T18:18:14.088Z,23.57
2019-05-28T18:21:04.531Z,23.58
2019-05-28T18:23:54.781Z,23.54
2019-05-28T18:26:45.083Z,23.48
2019-05-28T18:29:35.231Z,23.44
2019-05-28T18:32:25.515Z,23.43
2019-05-28T18:35:15.747Z,23.47
2019-05-28T18:38:06.093Z,23.42
2019-05-28T18:40:56.446Z,23.53
2019-05-28T18:43:46.720Z,23.48
2019-05-28T18:46:37.197Z,23.45
2019-05-28T18:49:27.696Z,23.36
2019-05-28T18:52:19.014Z,23.33
2019-05-28T18:55:09.316Z,23.30
2019-05-28T18:57:59.357Z,23.26
2019-05-28T19:00:49.341Z,23.18
2019-05-28T19:03:39.613Z,23.15
2019-05-28T19:06:30.018Z,23.12
2019-05-28T19:09:20.291Z,23.02
2019-05-28T19:12:10.417Z,22.94
2019-05-28T19:15:00.907Z,22.85
2019-05-28T19:17:52.266Z,22.86
2019-05-28T19:20:42.647Z,22.89
2019-05-28T19:23:33.030Z,22.90
2019-05-28T19:26:23.218Z,22.89
2019-05-28T19:29:13.254Z,22.81
2019-05-28T19:32:03.418Z,22.79
2019-05-28T19:34:53.724Z,22.93
2019-05-28T19:37:43.668Z,22.83
2019-05-28T19:40:36.534Z,22.72
2019-05-28T19:43:27.040Z,22.82
2019-05-28T19:46:17.143Z,22.69
2019-05-28T19:49:07.159Z,22.77
2019-05-28T19:51:57.655Z,22.89
2019-05-28T19:54:47.672Z,22.88
2019-05-28T19:57:37.862Z,22.96
2019-05-28T20:00:28.099Z,22.90
2019-05-28T20:03:18.333Z,22.83
2019-05-28T20:06:08.626Z,22.81
2019-05-28T20:08:58.707Z,22.68
2019-05-28T20:11:48.677Z,22.72
2019-05-28T20:14:38.822Z,22.80
2019-05-28T20:17:29.243Z,22.80
2019-05-28T20:20:19.380Z,22.83
2019-05-28T20:23:09.654Z,22.72
2019-05-28T20:25:59.916Z,22.60
2019-05-28T20:29:05.317Z,22.66
2019-05-28T20:31:41.732Z,22.65
2019-05-28T20:34:31.763Z,22.62
2019-05-28T20:37:22.023Z,22.52
2019-05-28T20:40:12.359Z,22.60
2019-05-28T20:43:04.152Z,22.55
2019-05-28T20:45:54.299Z,22.56
2019-05-28T20:48:44.768Z,22.53
2019-05-28T20:51:35.153Z,22.48
2019-05-28T20:54:25.408Z,22.45
2019-05-28T20:57:15.725Z,22.40
2019-05-28T21:00:06.836Z,22.52
2019-05-28T21:02:57.831Z,22.46
2019-05-28T21:05:48.472Z,22.37
2019-05-28T21:08:38.825Z,22.46
2019-05-28T21:11:29.231Z,22.45
2019-05-28T21:14:19.627Z,22.53
2019-05-28T21:17:09.987Z,22.61
2019-05-28T21:20:00.288Z,22.73
2019-05-28T21:22:51.785Z,22.65
2019-05-28T21:25:43.292Z,22.59
2019-05-28T21:28:34.482Z,22.59
2019-05-28T21:31:25.084Z,22.59
2019-05-28T21:34:15.349Z,22.68
2019-05-28T21:37:05.866Z,22.72
2019-05-28T21:39:57.359Z,22.66
2019-05-28T21:42:59.383Z,22.64
2019-05-28T21:45:39.653Z,22.64
2019-05-28T21:48:29.928Z,22.61
2019-05-28T21:51:19.954Z,22.63
2019-05-28T21:54:10.005Z,22.61
2019-05-28T21:56:59.975Z,22.57
2019-05-28T21:59:50.554Z,22.58
2019-05-28T22:02:40.911Z,22.69
2019-05-28T22:05:31.204Z,22.73
2019-05-28T22:08:21.367Z,22.73
2019-05-28T22:11:11.604Z,22.75
2019-05-28T22:14:02.208Z,22.80
2019-05-28T22:16:52.630Z,22.85
2019-05-28T22:19:42.900Z,22.88
2019-05-28T22:22:33.143Z,22.93
2019-05-28T22:25:23.465Z,22.91
2019-05-28T22:28:13.848Z,22.93
2019-05-28T22:31:04.261Z,22.92
2019-05-28T22:33:54.602Z,22.96
2019-05-28T22:36:44.835Z,22.98
2019-05-28T22:39:34.983Z,23.02
2019-05-28T22:42:25.000Z,23.09
2019-05-28T22:45:15.197Z,23.10
2019-05-28T22:48:07.578Z,23.10
2019-05-28T22:50:57.373Z,23.13
2019-05-28T22:53:47.443Z,23.06
2019-05-28T22:56:37.710Z,23.08
2019-05-28T22:59:28.008Z,23.01
2019-05-28T23:02:18.409Z,23.00
2019-05-28T23:05:09.311Z,22.98
2019-05-28T23:07:59.621Z,22.92
2019-05-28T23:10:49.885Z,22.90
2019-05-28T23:13:46.885Z,22.89
2019-05-28T23:16:31.678Z,22.92
2019-05-28T23:19:21.942Z,22.93
2019-05-28T23:22:12.188Z,22.85
2019-05-28T23:25:03.300Z,22.77
2019-05-28T23:27:53.672Z,22.72
2019-05-28T23:30:44.074Z,22.77
2019-05-28T23:33:35.456Z,22.73
2019-05-28T23:36:25.707Z,22.72
2019-05-28T23:39:16.102Z,22.64
2019-05-28T23:42:07.268Z,22.54
2019-05-28T23:44:57.592Z,22.50
2019-05-28T23:47:47.775Z,22.45
2019-05-28T23:50:38.060Z,22.45
2019-05-28T23:53:28.334Z,22.44
2019-05-28T23:56:18.561Z,22.38
2019-05-28T23:59:09.765Z,22.33
